Time;durP1;ratioP1;P1;durP2;ratioP2;P2;SDS_P1;SDS_P2;PMS_P1;PMS_P2;Temp;Humidity;BMP_temperature;BMP_pressure;BME280_temperature;BME280_humidity;BME280_pressure;Samples;Min_cycle;Max_cycle;Signal;HPM_P1;HPM_P2
2023/10/13 00:02:06;;;;;;;21.60;14.93;;;16.20;99.60;;;16.01;100.00;98010.22;5061074;28;20530;-82
2023/10/13 00:04:35;;;;;;;18.33;15.60;;;16.10;99.80;;;15.82;100.00;98009.63;5063857;28;20457;-82
2023/10/13 00:07:04;;;;;;;21.93;16.23;;;16.00;99.90;;;15.65;100.00;98001.47;5049640;28;20441;-82
2023/10/13 00:09:33;;;;;;;22.33;16.37;;;16.00;99.90;;;15.73;100.00;98012.75;5047528;28;20539;-81
2023/10/13 00:12:00;;;;;;;21.70;17.57;;;15.90;99.90;;;15.71;100.00;98003.22;5064819;28;20453;-80
2023/10/13 00:14:33;;;;;;;17.87;15.03;;;15.90;99.90;;;15.61;100.00;97994.88;5065605;28;20482;-80
2023/10/13 00:17:04;;;;;;;21.80;16.50;;;15.80;99.90;;;15.41;100.00;97977.16;5063866;28;20445;-81
2023/10/13 00:19:44;;;;;;;19.10;15.20;;;15.80;99.90;;;15.77;100.00;98007.66;5063131;28;20454;-82
2023/10/13 00:22:12;;;;;;;16.77;15.00;;;15.90;99.90;;;15.71;100.00;98001.28;5053098;28;20488;-82
2023/10/13 00:24:45;;;;;;;17.23;15.37;;;15.90;99.90;;;15.79;100.00;97996.50;5065042;28;20460;-81
2023/10/13 00:27:29;;;;;;;21.27;13.77;;;15.90;99.90;;;15.55;100.00;97950.41;5065029;28;20552;-82
2023/10/13 00:30:22;;;;;;;20.27;14.07;;;15.90;99.90;;;15.81;100.00;97995.16;5062843;28;20461;-83
2023/10/13 00:32:54;;;;;;;17.80;14.77;;;15.90;99.90;;;15.80;100.00;97996.25;5042446;28;20467;-82
2023/10/13 00:35:28;;;;;;;19.03;14.97;;;15.90;99.90;;;15.77;100.00;97985.84;5043397;28;20554;-81
2023/10/13 00:37:56;;;;;;;18.87;14.30;;;15.90;99.90;;;15.66;100.00;97984.06;5041648;28;20460;-82
2023/10/13 00:40:44;;;;;;;22.63;14.60;;;15.90;99.90;;;15.51;100.00;97971.84;5060556;28;20483;-81
2023/10/13 00:46:07;;;;;;;16.70;13.90;;;15.70;99.90;;;15.65;100.00;97982.41;5062464;28;20472;-81
2023/10/13 00:48:45;;;;;;;18.63;14.80;;;15.80;99.90;;;15.43;100.00;97975.00;5060609;28;20460;-81
2023/10/13 00:51:32;;;;;;;16.83;14.57;;;15.70;99.90;;;15.48;100.00;97977.81;5061881;28;20437;-81
2023/10/13 00:54:02;;;;;;;21.83;14.20;;;15.70;99.90;;;15.37;100.00;97965.09;5066760;28;20472;-83
2023/10/13 00:56:31;;;;;;;16.73;13.97;;;15.60;99.90;;;15.36;100.00;97977.91;5049514;28;20813;-81
2023/10/13 00:59:02;;;;;;;20.90;14.53;;;15.60;99.90;;;15.29;100.00;97948.13;5064533;28;20449;-83
2023/10/13 01:01:32;;;;;;;18.83;13.87;;;15.60;99.90;;;15.46;100.00;97969.06;5045183;28;20825;-81
2023/10/13 01:04:00;;;;;;;18.37;14.20;;;15.60;99.90;;;15.34;100.00;97960.16;5063799;28;20925;-82
2023/10/13 01:06:29;;;;;;;20.00;14.40;;;15.60;99.90;;;15.46;100.00;97979.13;5059944;28;20546;-83
2023/10/13 01:09:10;;;;;;;16.17;14.43;;;15.60;99.90;;;15.50;100.00;97975.66;5039086;28;20445;-82
2023/10/13 01:11:39;;;;;;;17.37;13.80;;;15.70;99.90;;;15.39;100.00;97984.72;5064594;28;20468;-82
2023/10/13 01:14:05;;;;;;;15.57;13.77;;;15.60;99.90;;;15.33;100.00;97991.16;5061905;28;20877;-83
2023/10/13 01:16:35;;;;;;;17.63;13.90;;;15.60;99.90;;;15.32;100.00;97987.63;5038098;28;20449;-82
2023/10/13 01:19:05;;;;;;;18.40;14.20;;;15.50;99.90;;;15.27;100.00;97968.47;5061776;28;20445;-82
2023/10/13 01:21:33;;;;;;;16.17;13.30;;;15.60;99.90;;;15.16;100.00;97975.66;5064535;28;20790;-80
2023/10/13 01:24:07;;;;;;;17.33;14.20;;;15.50;99.90;;;15.23;100.00;97976.31;5057602;28;20507;-81
2023/10/13 01:26:39;;;;;;;19.90;13.33;;;15.40;99.90;;;15.22;100.00;97979.28;5059962;28;21240;-81
2023/10/13 01:29:14;;;;;;;20.73;14.00;;;15.50;99.90;;;15.14;100.00;97983.25;5054442;28;20446;-81
2023/10/13 01:31:48;;;;;;;14.90;13.50;;;15.40;99.90;;;15.19;100.00;97980.59;5058296;28;20460;-81
2023/10/13 01:34:21;;;;;;;20.73;14.03;;;15.40;99.90;;;15.11;100.00;97970.94;5042855;28;20439;-81
2023/10/13 01:36:50;;;;;;;25.03;14.20;;;15.40;99.90;;;15.13;100.00;97976.16;5044780;28;20565;-81
2023/10/13 01:39:19;;;;;;;15.17;12.10;;;15.40;99.90;;;15.14;100.00;97970.44;5039206;28;20533;-82
2023/10/13 01:41:46;;;;;;;20.10;13.87;;;15.40;99.90;;;15.16;100.00;97975.66;5058872;28;20788;-82
2023/10/13 01:44:14;;;;;;;17.00;13.57;;;15.40;99.90;;;15.17;100.00;97976.50;5063313;28;20496;-82
2023/10/13 01:46:43;;;;;;;17.13;13.60;;;15.40;99.90;;;15.17;100.00;97965.63;5047728;28;20805;-82
2023/10/13 01:49:09;;;;;;;18.37;13.33;;;15.40;99.90;;;15.27;100.00;97982.94;5045459;28;20441;-82
2023/10/13 01:51:39;;;;;;;16.43;14.03;;;15.50;99.90;;;15.32;100.00;97984.91;5053894;28;20448;-82
2023/10/13 01:54:11;;;;;;;17.67;13.40;;;15.50;99.90;;;15.36;100.00;97980.63;5038823;28;20448;-81
2023/10/13 01:56:42;;;;;;;17.23;14.80;;;15.50;99.90;;;15.44;100.00;97972.03;5058785;28;20476;-82
2023/10/13 01:59:09;;;;;;;20.57;12.80;;;15.60;99.90;;;15.18;100.00;97929.16;5059257;28;20441;-81
2023/10/13 02:01:36;;;;;;;17.80;12.80;;;15.60;99.90;;;15.48;100.00;97966.09;5040792;28;20472;-80
2023/10/13 02:04:03;;;;;;;17.60;13.60;;;15.60;99.90;;;15.40;100.00;97970.06;5060931;28;20445;-81
2023/10/13 02:06:35;;;;;;;18.87;13.97;;;15.60;99.90;;;15.37;100.00;97970.53;5048055;28;20449;-81
2023/10/13 02:09:10;;;;;;;14.83;12.50;;;15.60;99.90;;;15.38;100.00;97955.84;5061004;28;20451;-82
2023/10/13 02:11:41;;;;;;;16.07;13.17;;;15.60;99.90;;;15.40;100.00;97975.50;5059628;28;20444;-80
2023/10/13 02:14:11;;;;;;;20.37;13.57;;;15.60;99.90;;;15.35;100.00;97976.25;5062388;28;20585;-81
2023/10/13 02:16:39;;;;;;;17.67;13.87;;;15.60;99.90;;;15.18;100.00;97962.63;5059925;28;20467;-81
2023/10/13 02:19:05;;;;;;;16.77;13.13;;;15.50;99.90;;;15.32;100.00;97962.31;5059011;28;20441;-82
2023/10/13 02:21:38;;;;;;;20.13;12.93;;;15.60;99.90;;;14.92;100.00;97918.66;5045653;28;20477;-82
2023/10/13 02:24:12;;;;;;;18.37;13.20;;;15.50;99.90;;;15.14;100.00;97962.28;5060877;28;20560;-82
2023/10/13 02:26:41;;;;;;;14.90;12.27;;;15.40;99.90;;;15.23;100.00;97957.25;5063027;28;20452;-81
2023/10/13 02:29:08;;;;;;;16.90;13.40;;;15.50;99.90;;;15.20;100.00;97944.16;5042363;28;20461;-81
2023/10/13 02:31:37;;;;;;;15.70;13.03;;;15.40;99.90;;;15.17;100.00;97936.50;5056716;28;20452;-82
2023/10/13 02:34:07;;;;;;;17.10;13.40;;;15.40;99.90;;;15.32;100.00;97951.41;5037649;28;20452;-81
2023/10/13 02:36:46;;;;;;;19.10;12.70;;;15.40;99.90;;;15.25;100.00;97946.97;5061236;28;20454;-81
2023/10/13 02:39:13;;;;;;;17.87;12.57;;;15.50;99.90;;;15.24;100.00;97950.78;5060289;28;20531;-80
2023/10/13 02:41:47;;;;;;;14.77;13.13;;;15.50;99.90;;;15.33;100.00;97948.47;5059130;28;20473;-81
2023/10/13 02:44:26;;;;;;;16.90;12.50;;;15.50;99.90;;;15.22;100.00;97938.47;5061885;28;20479;-80
2023/10/13 02:46:55;;;;;;;14.40;12.10;;;15.50;99.90;;;15.23;100.00;97943.66;5059001;28;20921;-81
2023/10/13 02:49:22;;;;;;;16.80;12.70;;;15.60;99.90;;;15.20;100.00;97938.72;5056880;28;20810;-82
2023/10/13 02:51:49;;;;;;;17.40;12.40;;;15.50;99.90;;;15.24;100.00;97925.44;5062042;28;20476;-81
2023/10/13 02:54:20;;;;;;;18.50;12.80;;;15.60;99.60;;;15.32;100.00;97935.09;5060125;28;20952;-81
2023/10/13 02:56:50;;;;;;;13.50;12.20;;;15.60;99.90;;;15.33;100.00;97929.41;5065621;28;20880;-84
2023/10/13 02:59:19;;;;;;;15.43;11.63;;;15.60;99.80;;;15.12;100.00;97887.44;5062872;28;20459;-82
2023/10/13 03:01:45;;;;;;;14.70;12.40;;;15.60;99.10;;;15.19;100.00;97923.47;5068771;28;20473;-81
2023/10/13 03:04:13;;;;;;;17.43;13.37;;;15.60;98.50;;;15.22;100.00;97925.69;5049965;28;20502;-81
2023/10/13 03:06:40;;;;;;;18.20;12.53;;;15.50;99.00;;;15.39;100.00;97930.28;5059594;28;20453;-80
2023/10/13 03:09:18;;;;;;;16.93;12.83;;;15.60;98.70;;;15.40;100.00;97931.97;5066183;28;20548;-81
2023/10/13 03:11:48;;;;;;;14.23;11.60;;;15.60;98.00;;;15.33;100.00;97925.84;5054417;28;20869;-81
2023/10/13 03:14:24;;;;;;;22.20;12.50;;;15.60;97.60;;;15.10;100.00;97867.81;5058040;28;20880;-81
2023/10/13 03:16:53;;;;;;;16.80;12.23;;;15.60;97.70;;;15.40;100.00;97921.06;5066545;28;20509;-82
2023/10/13 03:19:19;;;;;;;17.23;13.20;;;15.60;97.50;;;15.44;100.00;97922.22;5068049;28;20550;-82
2023/10/13 03:21:54;;;;;;;14.47;11.83;;;15.70;97.40;;;15.40;100.00;97931.97;5063548;28;20560;-81
2023/10/13 03:24:33;;;;;;;17.50;11.73;;;15.60;97.20;;;15.35;100.00;97919.09;5064243;28;20457;-80
2023/10/13 03:27:07;;;;;;;16.70;12.70;;;15.60;97.10;;;15.35;100.00;97923.69;5063549;28;20529;-81
2023/10/13 03:29:38;;;;;;;14.47;12.53;;;15.60;97.10;;;15.30;100.00;97922.56;5060614;28;20510;-81
2023/10/13 03:32:11;;;;;;;17.20;12.73;;;15.60;97.10;;;15.21;100.00;97902.25;5063727;28;21019;-81
2023/10/13 03:34:49;;;;;;;16.73;11.80;;;15.60;97.10;;;15.22;100.00;97912.06;5064673;28;20505;-82
2023/10/13 03:37:19;;;;;;;13.33;11.93;;;15.60;96.90;;;15.21;100.00;97901.44;5066869;28;20464;-81
2023/10/13 03:39:48;;;;;;;16.63;11.80;;;15.50;97.30;;;15.05;100.00;97898.50;5054509;28;20477;-81
2023/10/13 03:42:19;;;;;;;16.60;13.47;;;15.40;97.60;;;14.95;100.00;97899.16;5062558;28;20469;-80
2023/10/13 03:44:48;;;;;;;15.53;11.57;;;15.30;97.80;;;14.94;100.00;97916.53;5062797;28;20880;-80
2023/10/13 03:47:26;;;;;;;18.73;12.23;;;15.20;98.00;;;14.83;100.00;97918.25;5062236;28;20984;-80
2023/10/13 03:50:15;;;;;;;15.50;12.73;;;15.20;98.70;;;14.76;100.00;97914.88;5066339;28;20930;-80
2023/10/13 03:52:42;;;;;;;21.47;13.20;;;15.10;98.70;;;14.77;100.00;97918.41;5064563;28;21095;-80
2023/10/13 03:55:17;;;;;;;16.33;13.00;;;15.10;99.20;;;14.63;100.00;97896.91;5067507;28;20463;-80
2023/10/13 03:57:50;;;;;;;20.53;13.03;;;15.10;99.20;;;14.76;100.00;97914.03;5060785;28;20971;-81
2023/10/13 04:00:24;;;;;;;18.33;12.17;;;15.10;99.50;;;14.81;100.00;97914.13;5061762;28;20951;-80
2023/10/13 04:03:04;;;;;;;18.57;13.10;;;15.10;99.10;;;14.87;100.00;97903.09;5063337;28;20480;-81
2023/10/13 04:05:39;;;;;;;14.40;12.90;;;15.20;98.80;;;14.82;100.00;97904.91;5061075;28;20446;-81
2023/10/13 04:16:35;;;;;;;19.87;13.50;;;15.30;96.50;;;15.06;98.76;97893.84;5052804;28;20464;-81
2023/10/13 04:19:11;;;;;;;13.17;11.70;;;15.30;96.30;;;14.73;98.20;97847.38;5062655;28;20559;-81
2023/10/13 04:21:55;;;;;;;16.00;11.10;;;15.30;96.30;;;14.62;98.04;97849.06;5064210;28;20577;-79
2023/10/13 04:24:39;;;;;;;16.63;11.77;;;15.20;96.10;;;14.85;98.88;97888.09;5047881;28;20827;-81
2023/10/13 04:30:03;;;;;;;16.87;11.50;;;15.10;96.40;;;14.84;98.21;97894.59;5061579;28;20964;-81
2023/10/13 04:32:38;;;;;;;15.70;11.13;;;15.10;95.90;;;14.91;98.01;97897.97;5044629;28;20577;-81
2023/10/13 04:35:17;;;;;;;12.47;11.17;;;15.20;95.90;;;15.05;97.42;97903.09;5064335;28;20455;-81
2023/10/13 04:37:50;;;;;;;16.13;11.50;;;15.30;95.70;;;15.09;96.98;97893.34;5039763;28;20453;-81
2023/10/13 04:40:24;;;;;;;13.20;11.23;;;15.30;95.30;;;15.06;96.20;97899.28;5062402;28;20469;-82
2023/10/13 04:42:53;;;;;;;18.73;11.80;;;15.30;95.20;;;15.19;94.89;97884.56;5059776;28;20486;-81
2023/10/13 04:48:27;;;;;;;16.70;11.43;;;15.40;94.50;;;15.24;94.83;97880.00;5022148;28;20448;-82
2023/10/13 04:51:49;;;;;;;13.37;11.20;;;15.40;94.60;;;15.14;94.07;97885.28;5063552;28;21005;-79
2023/10/13 04:54:12;;;;;;;17.40;11.77;;;15.40;94.00;;;15.20;93.12;97869.88;5054718;28;20463;-90
2023/10/13 04:57:14;;;;;;;13.70;11.23;;;15.50;93.70;;;15.23;92.61;97877.53;5072282;28;20463;-87
2023/10/13 05:05:44;;;;;;;16.47;11.30;;;15.50;92.70;;;15.27;90.61;97873.22;5080059;28;20463;-82
2023/10/13 05:47:01;;;;;;;13.53;8.90;;;15.80;89.40;;;15.72;80.42;97874.13;5058342;28;20465;-76
2023/10/13 05:49:49;;;;;;;13.13;8.60;;;15.90;88.80;;;15.91;78.82;97876.56;5056168;28;20457;-74
2023/10/13 06:28:40;;;;;;;8.83;7.80;;;16.00;88.40;;;16.02;79.00;97886.53;5058716;28;20460;-74
2023/10/13 06:31:02;;;;;;;10.37;8.13;;;16.40;85.70;;;16.15;75.04;97888.03;5041636;28;20545;-80
2023/10/13 06:33:29;;;;;;;10.77;8.03;;;16.40;85.60;;;16.32;75.23;97901.56;5062753;28;20535;-79
2023/10/13 06:35:58;;;;;;;14.73;7.90;;;16.40;85.70;;;16.46;73.62;97904.72;5065124;28;20542;-80
2023/10/13 06:38:30;;;;;;;10.23;7.50;;;16.60;85.20;;;16.27;73.63;97893.31;5047478;28;20812;-77
2023/10/13 06:40:58;;;;;;;15.70;9.53;;;16.60;84.90;;;16.12;74.18;97885.81;5064681;28;20937;-76
2023/10/13 06:43:32;;;;;;;12.20;8.17;;;16.40;84.90;;;16.07;73.88;97874.84;5063677;28;21012;-85
2023/10/13 06:46:01;;;;;;;13.80;8.40;;;16.40;84.80;;;15.99;73.85;97867.94;5065622;28;20517;-79
2023/10/13 06:48:33;;;;;;;16.70;8.80;;;16.30;84.60;;;16.09;74.24;97895.31;5062556;28;20937;-75
2023/10/13 06:51:14;;;;;;;11.67;7.50;;;16.30;84.80;;;16.08;75.02;97892.84;5062001;28;20517;-76
2023/10/13 06:53:46;;;;;;;12.87;8.00;;;16.30;85.00;;;15.99;74.19;97873.38;5045146;28;20454;-75
2023/10/13 06:56:22;;;;;;;8.63;7.80;;;16.20;84.80;;;16.08;73.88;97887.41;5061503;28;20457;-76
2023/10/13 06:58:50;;;;;;;11.43;7.77;;;16.30;84.60;;;16.03;73.53;97890.06;5046685;28;20459;-80
2023/10/13 07:01:22;;;;;;;8.47;7.33;;;16.30;84.50;;;16.10;73.75;97896.94;5062933;28;20446;-81
2023/10/13 07:03:52;;;;;;;8.90;6.87;;;16.30;84.50;;;15.92;73.90;97880.94;5060934;28;20481;-81
2023/10/13 07:06:22;;;;;;;7.93;7.10;;;16.20;84.30;;;16.14;73.23;97892.63;5045276;28;20464;-82
2023/10/13 07:08:52;;;;;;;13.47;7.63;;;16.30;84.40;;;16.23;73.74;97906.66;5041455;28;20451;-81
2023/10/13 07:11:32;;;;;;;10.73;7.50;;;16.40;84.60;;;16.13;73.29;97891.00;5046958;28;20537;-79
2023/10/13 07:14:10;;;;;;;11.37;6.83;;;16.40;84.20;;;16.08;72.94;97882.75;5061526;28;20536;-81
2023/10/13 07:16:58;;;;;;;12.43;7.67;;;16.40;83.80;;;16.17;72.79;97882.31;5067158;28;20762;-80
2023/10/13 07:19:27;;;;;;;12.90;7.40;;;16.50;83.70;;;16.36;72.77;97882.78;5036554;28;20455;-79
2023/10/13 07:21:58;;;;;;;8.40;7.13;;;16.50;84.10;;;16.23;72.18;97889.47;5052308;28;20454;-80
2023/10/13 07:24:31;;;;;;;10.40;7.27;;;16.60;83.40;;;16.40;71.84;97886.66;5043151;28;20463;-79
2023/10/13 07:27:03;;;;;;;9.47;6.67;;;16.60;83.50;;;16.47;71.42;97878.28;5063901;28;20449;-81
2023/10/13 07:29:33;;;;;;;9.67;6.90;;;16.70;83.30;;;16.46;71.39;97887.53;5062376;28;20692;-80
2023/10/13 07:32:02;;;;;;;7.33;6.40;;;16.70;83.00;;;16.53;70.91;97880.81;5064106;28;20503;-80
2023/10/13 07:34:32;;;;;;;10.50;7.07;;;16.80;82.80;;;16.35;69.98;97832.06;5046640;28;20535;-80
2023/10/13 07:37:00;;;;;;;8.43;6.27;;;16.90;82.50;;;16.66;69.67;97882.28;5063561;28;20944;-80
2023/10/13 07:39:33;;;;;;;7.90;6.10;;;16.90;82.30;;;16.57;70.51;97878.34;5065386;28;20539;-81
2023/10/13 07:42:07;;;;;;;9.23;6.53;;;16.90;82.60;;;16.85;69.77;97887.34;5052739;28;20502;-80
2023/10/13 07:44:40;;;;;;;10.63;6.50;;;17.00;82.50;;;17.01;69.32;97880.16;5062010;28;20856;-82
2023/10/13 07:47:10;;;;;;;8.13;6.33;;;17.20;82.40;;;17.00;68.61;97881.25;5063556;28;20927;-81
2023/10/13 07:49:39;;;;;;;7.90;6.47;;;17.20;81.80;;;17.15;68.59;97876.97;5065052;28;20458;-80
2023/10/13 07:52:36;;;;;;;20.60;7.60;;;17.30;81.90;;;17.11;68.05;97882.13;5045607;28;20897;-80
2023/10/13 07:55:12;;;;;;;11.63;7.00;;;17.30;81.50;;;17.15;68.15;97882.44;5067189;28;20457;-82
2023/10/13 07:57:53;;;;;;;8.83;7.23;;;17.40;81.40;;;16.87;67.96;97813.44;5056974;28;20809;-84
2023/10/13 08:00:46;;;;;;;9.03;6.80;;;17.50;81.40;;;17.23;67.98;97863.66;5065484;28;20452;-80
2023/10/13 08:03:32;;;;;;;7.73;6.43;;;17.50;81.40;;;17.59;67.19;97870.41;5055307;28;20460;-83
2023/10/13 08:06:04;;;;;;;8.97;7.10;;;17.70;81.30;;;17.48;67.18;97881.28;5060141;28;20454;-83
2023/10/13 08:08:37;;;;;;;12.30;7.30;;;17.70;81.00;;;17.62;66.79;97859.78;5068785;28;20798;-82
2023/10/13 08:11:11;;;;;;;9.03;6.33;;;17.80;80.90;;;17.82;65.86;97871.91;5065855;28;20478;-81
2023/10/13 08:13:46;;;;;;;11.03;6.37;;;18.00;80.40;;;17.67;66.03;97872.66;5040474;28;20464;-83
2023/10/13 08:16:20;;;;;;;8.97;6.27;;;18.00;80.00;;;17.73;65.65;97865.28;5060683;28;20470;-82
2023/10/13 08:18:49;;;;;;;9.77;6.20;;;17.90;79.80;;;17.91;65.13;97866.75;5061637;28;20448;-83
2023/10/13 08:21:19;;;;;;;8.90;6.83;;;18.10;79.80;;;17.92;64.88;97866.47;5046757;28;20460;-81
2023/10/13 08:23:59;;;;;;;9.50;6.47;;;18.20;79.60;;;17.84;65.01;97867.81;5063606;28;20549;-82
2023/10/13 08:26:57;;;;;;;11.53;6.00;;;18.10;79.30;;;18.03;64.56;97866.53;5042200;28;20484;-83
2023/10/13 08:32:36;;;;;;;7.87;6.50;;;18.30;79.20;;;17.93;65.17;97861.81;5064623;28;20439;-79
2023/10/13 08:35:22;;;;;;;8.60;6.00;;;18.20;79.30;;;18.03;65.01;97866.53;5062398;28;20511;-81
2023/10/13 08:38:13;;;;;;;8.27;6.73;;;18.10;79.30;;;18.10;64.43;97842.50;5047592;28;20478;-80
2023/10/13 08:43:44;;;;;;;10.57;6.40;;;18.40;79.10;;;17.97;63.90;97797.34;5065724;28;20483;-82
2023/10/13 08:46:24;;;;;;;9.13;7.27;;;18.50;78.90;;;18.41;63.73;97854.31;5070979;28;20449;-82
2023/10/13 08:49:09;;;;;;;10.13;7.10;;;18.60;78.90;;;18.32;64.37;97849.66;5060713;28;20510;-83
2023/10/13 08:51:44;;;;;;;14.13;6.67;;;18.50;79.00;;;18.53;64.00;97840.41;5061325;28;20466;-81
2023/10/13 08:54:33;;;;;;;11.23;5.80;;;18.70;79.10;;;18.73;63.47;97852.47;5041931;28;20468;-79
2023/10/13 08:57:19;;;;;;;11.20;6.53;;;18.80;78.90;;;18.68;63.72;97842.31;5065996;28;20458;-80
2023/10/13 08:59:53;;;;;;;17.20;7.30;;;18.90;78.70;;;18.83;62.78;97800.47;5046261;28;20958;-82
2023/10/13 09:02:52;;;;;;;12.33;7.87;;;19.10;78.70;;;19.24;62.74;97848.06;5066358;28;20466;-79
2023/10/13 09:08:03;;;;;;;6.23;5.37;;;19.50;77.80;;;19.45;60.21;97826.94;5064605;28;20458;-79
2023/10/13 09:10:34;;;;;;;7.53;5.40;;;19.70;77.20;;;19.46;59.78;97822.28;5058944;28;20462;-79
2023/10/13 09:13:02;;;;;;;10.13;5.13;;;19.70;76.50;;;19.63;59.63;97831.00;5050065;28;20461;-81
2023/10/13 09:18:41;;;;;;;11.27;6.70;;;20.00;76.10;;;19.80;59.48;97849.03;5061121;28;20545;-81
2023/10/13 09:24:15;;;;;;;9.10;6.03;;;20.00;75.40;;;19.80;59.15;97832.56;5029089;28;20480;-80
2023/10/13 09:26:41;;;;;;;8.87;6.10;;;20.00;75.40;;;19.83;59.62;97832.00;5050563;28;20456;-78
2023/10/13 09:29:18;;;;;;;12.27;6.10;;;20.00;75.70;;;20.08;58.82;97833.81;5066630;28;20446;-80
2023/10/13 09:32:00;;;;;;;7.57;6.10;;;20.10;75.50;;;20.24;58.49;97831.84;5044520;28;20465;-82
2023/10/13 09:34:29;;;;;;;12.30;6.50;;;20.30;75.30;;;20.64;57.72;97834.56;5052385;28;20452;-82
2023/10/13 09:37:00;;;;;;;12.13;6.03;;;20.60;75.30;;;20.63;57.25;97827.44;5066701;28;20461;-81
2023/10/13 09:39:34;;;;;;;7.63;6.67;;;20.80;74.70;;;20.93;57.04;97828.34;5066818;28;20449;-80
2023/10/13 09:42:03;;;;;;;8.20;5.70;;;21.00;74.70;;;21.02;56.74;97827.72;5063333;28;20458;-79
2023/10/13 09:44:31;;;;;;;12.10;7.03;;;21.10;74.40;;;20.77;56.98;97813.06;5064598;28;20473;-82
2023/10/13 09:47:08;;;;;;;10.93;5.20;;;21.00;74.10;;;20.62;57.93;97819.50;5054911;28;20452;-81
2023/10/13 09:49:49;;;;;;;16.53;6.20;;;20.80;74.30;;;20.50;58.08;97811.63;5071111;28;20475;-80
2023/10/13 09:52:25;;;;;;;7.40;6.03;;;20.80;74.60;;;20.54;58.15;97818.19;5050537;28;20491;-82
2023/10/13 09:55:08;;;;;;;8.40;5.80;;;20.70;74.60;;;20.57;58.19;97812.16;5044952;28;20452;-81
2023/10/13 09:57:44;;;;;;;9.33;6.00;;;20.60;74.60;;;20.67;57.67;97801.06;5064815;28;20523;-83
2023/10/13 10:00:44;;;;;;;8.43;5.40;;;20.70;74.30;;;20.66;57.64;97807.66;5048127;28;21325;-81
2023/10/13 10:03:30;;;;;;;19.20;5.87;;;20.70;74.20;;;20.77;57.28;97810.34;5045088;28;20544;-82
2023/10/13 10:06:05;;;;;;;10.37;5.50;;;20.80;74.00;;;20.93;56.91;97811.88;5050749;28;20454;-78
2023/10/13 10:08:34;;;;;;;6.93;5.93;;;20.90;73.90;;;21.06;56.05;97812.31;5049713;28;20450;-81
2023/10/13 10:11:24;;;;;;;9.93;5.20;;;21.10;73.30;;;21.41;55.21;97804.78;5054481;28;20457;-82
2023/10/13 10:14:04;;;;;;;6.33;5.80;;;21.30;73.10;;;21.79;53.86;97799.44;5065522;28;20488;-78
2023/10/13 10:16:51;;;;;;;7.07;4.90;;;21.60;72.50;;;22.00;52.64;97779.91;5063352;28;20451;-80
2023/10/13 10:19:19;;;;;;;9.37;5.97;;;22.00;71.30;;;22.47;51.59;97796.59;5053617;28;20995;-82
2023/10/13 10:21:48;;;;;;;6.60;5.63;;;22.30;70.70;;;22.80;50.54;97784.75;5072282;28;20453;-82
2023/10/13 10:24:29;;;;;;;8.33;5.13;;;22.70;69.80;;;22.41;50.35;97736.38;5036237;28;20466;-84
2023/10/13 10:26:57;;;;;;;6.10;5.33;;;22.90;69.10;;;22.91;49.75;97785.41;5063442;28;20482;-84
2023/10/13 10:29:24;;;;;;;6.43;4.97;;;23.00;68.70;;;22.91;50.49;97775.19;5042286;28;20442;-83
2023/10/13 10:31:52;;;;;;;9.90;5.47;;;23.00;68.90;;;22.59;50.37;97793.34;5062551;28;20443;-83
2023/10/13 10:34:19;;;;;;;9.00;4.90;;;22.90;67.80;;;22.76;50.41;97783.72;5052615;28;20443;-82
2023/10/13 10:36:51;;;;;;;6.10;5.00;;;22.90;68.40;;;22.73;50.61;97782.38;5050086;28;20805;-83
2023/10/13 10:39:21;;;;;;;8.60;5.40;;;22.80;68.30;;;22.51;50.54;97788.53;5078592;28;20520;-82
2023/10/13 10:41:53;;;;;;;7.00;4.93;;;22.70;67.60;;;22.29;50.51;97765.16;5057731;28;20452;-82
2023/10/13 10:44:33;;;;;;;9.20;5.93;;;22.60;67.40;;;22.52;50.10;97779.19;5050798;28;20476;-85
2023/10/13 10:47:11;;;;;;;8.77;5.60;;;22.60;67.30;;;22.66;50.01;97773.69;5071483;28;20449;-85
2023/10/13 10:49:41;;;;;;;8.37;4.60;;;22.60;67.40;;;22.77;50.05;97755.06;5073826;28;20536;-82
2023/10/13 10:52:18;;;;;;;8.30;4.87;;;22.70;67.70;;;22.86;48.75;97753.25;5069508;28;20453;-83
2023/10/13 10:54:51;;;;;;;6.17;4.20;;;22.90;66.20;;;22.99;48.56;97753.59;5087705;28;20499;-86
2023/10/13 10:57:19;;;;;;;8.93;5.37;;;23.00;66.00;;;22.97;48.20;97750.31;5074813;28;20538;-85
2023/10/13 10:59:58;;;;;;;8.80;5.20;;;23.00;65.60;;;22.73;47.85;97696.22;5080426;28;20548;-83
2023/10/13 11:02:31;;;;;;;11.83;6.40;;;23.10;65.20;;;23.09;47.27;97711.25;5078312;28;20459;-84
2023/10/13 11:04:59;;;;;;;7.20;4.53;;;23.20;65.10;;;23.32;47.55;97750.78;5080171;28;20484;-80
2023/10/13 11:07:29;;;;;;;8.33;5.00;;;23.30;65.00;;;23.46;46.69;97740.56;5074906;28;21025;-85
2023/10/13 11:10:12;;;;;;;16.73;5.60;;;23.40;65.10;;;23.56;47.05;97733.19;5053662;28;20443;-81
2023/10/13 11:12:43;;;;;;;9.60;5.90;;;23.50;65.30;;;23.54;46.62;97736.28;5071005;28;20450;-83
2023/10/13 11:15:13;;;;;;;6.30;4.30;;;23.50;64.10;;;23.55;46.55;97710.34;5071694;28;20454;-82
2023/10/13 11:17:48;;;;;;;11.13;6.23;;;23.60;64.20;;;23.71;46.85;97713.56;5068299;28;20456;-81
2023/10/13 11:20:25;;;;;;;9.67;6.00;;;23.70;64.20;;;23.93;45.89;97720.28;5073696;28;21289;-82
2023/10/13 11:22:53;;;;;;;5.17;4.67;;;23.80;63.70;;;23.88;46.01;97714.84;5061280;28;20477;-83
2023/10/13 11:25:30;;;;;;;7.20;4.80;;;23.90;63.50;;;23.95;45.14;97712.50;5064721;28;20472;-83
2023/10/13 11:27:59;;;;;;;7.33;4.53;;;23.90;62.80;;;24.01;44.92;97697.44;5045683;28;20457;-83
2023/10/13 11:30:40;;;;;;;7.40;5.03;;;24.00;62.30;;;24.11;44.68;97688.16;5048825;28;20575;-84
2023/10/13 11:33:11;;;;;;;8.90;5.00;;;24.00;62.40;;;24.31;44.29;97689.59;5052669;28;20479;-80
2023/10/13 11:35:58;;;;;;;6.80;4.63;;;24.20;62.10;;;24.16;44.05;97681.69;5055133;28;20556;-83
2023/10/13 11:38:28;;;;;;;9.13;5.27;;;24.20;61.60;;;24.37;44.09;97681.19;5047346;28;20777;-82
2023/10/13 11:49:31;;;;;;;5.63;4.43;;;24.50;57.50;;;24.87;38.56;97692.06;5006749;28;20543;-82
2023/10/13 11:52:10;;;;;;;6.60;3.73;;;24.70;56.50;;;25.07;36.83;97684.31;5063153;28;20926;-82
2023/10/13 11:54:41;;;;;;;7.33;4.33;;;25.00;55.20;;;25.11;36.70;97682.56;5065462;28;21009;-81
2023/10/13 11:57:10;;;;;;;8.10;4.10;;;25.10;54.50;;;25.30;35.73;97676.75;5069554;28;20463;-83
2023/10/13 11:59:45;;;;;;;7.57;4.13;;;25.20;54.00;;;25.24;35.68;97661.47;5065496;28;20456;-84
2023/10/13 12:04:59;;;;;;;8.67;4.50;;;25.20;53.30;;;25.17;35.82;97661.94;5067649;28;20512;-80
2023/10/13 12:07:45;;;;;;;6.30;4.60;;;25.20;52.90;;;24.94;35.88;97658.44;5067343;28;20459;-82
2023/10/13 12:10:16;;;;;;;5.03;3.77;;;25.00;52.90;;;25.22;35.49;97652.69;5062875;28;20484;-83
2023/10/13 12:12:47;;;;;;;6.00;4.30;;;25.10;52.80;;;25.43;36.15;97643.78;5027895;28;20935;-81
2023/10/13 12:15:25;;;;;;;8.53;4.43;;;25.20;53.00;;;25.32;35.94;97594.34;5054479;28;20444;-83
2023/10/13 12:17:53;;;;;;;5.73;3.80;;;25.50;53.10;;;25.30;35.90;97626.19;5064606;28;20459;-83
2023/10/13 12:20:32;;;;;;;7.00;4.30;;;25.60;52.60;;;25.59;36.01;97644.97;5066788;28;20482;-82
2023/10/13 12:23:09;;;;;;;7.23;3.93;;;25.60;52.70;;;25.80;35.55;97643.50;5064153;28;20458;-81
2023/10/13 12:28:28;;;;;;;6.50;4.10;;;25.80;52.60;;;25.78;35.92;97623.66;5066505;28;20505;-84
2023/10/13 12:31:08;;;;;;;6.10;4.00;;;25.90;52.60;;;25.76;35.33;97631.47;5062961;28;20464;-84
2023/10/13 12:33:40;;;;;;;6.10;4.33;;;25.80;52.00;;;25.70;35.85;97617.00;5046065;28;20559;-84
2023/10/13 12:36:11;;;;;;;7.47;4.30;;;25.80;52.40;;;25.67;35.76;97615.69;5058220;28;20502;-81
2023/10/13 12:38:51;;;;;;;7.27;4.20;;;25.70;52.10;;;25.58;35.85;97617.66;5047588;28;20509;-83
2023/10/13 12:49:57;;;;;;;5.00;3.70;;;25.10;52.40;;;24.85;37.40;97616.16;5068608;28;20978;-84
2023/10/13 12:52:31;;;;;;;9.30;3.40;;;24.90;52.50;;;24.73;37.13;97616.72;5075198;28;20453;-82
2023/10/13 12:55:09;;;;;;;6.80;4.63;;;24.80;52.40;;;24.74;37.62;97610.06;5075020;28;20498;-82